Time;durP1;ratioP1;P1;durP2;ratioP2;P2;SDS_P1;SDS_P2;PMS_P1;PMS_P2;Temp;Humidity;BMP_temperature;BMP_pressure;BME280_temperature;BME280_humidity;BME280_pressure;Samples;Min_cycle;Max_cycle;Signal;HPM_P1;HPM_P2
2022/10/22 00:02:35;;;;;;;62.03;37.30;;;;;;;7.44;100.00;98919.53;4040706;87;21578;-84
2022/10/22 00:08:36;;;;;;;79.85;43.08;;;;;;;7.38;100.00;98932.64;4048289;86;21023;-83
2022/10/22 00:14:38;;;;;;;74.58;43.02;;;;;;;7.42;100.00;98934.86;4092353;86;21589;-84
2022/10/22 00:20:39;;;;;;;69.58;41.92;;;;;;;7.38;100.00;98920.95;4082550;86;21670;-84
2022/10/22 00:26:41;;;;;;;71.37;42.08;;;;;;;7.30;100.00;98914.56;4074479;86;21095;-84
2022/10/22 00:32:42;;;;;;;73.15;41.45;;;;;;;7.23;100.00;98898.65;4093784;86;21015;-84
2022/10/22 00:38:43;;;;;;;68.52;40.98;;;;;;;7.23;100.00;98908.17;4089468;86;21565;-84
2022/10/22 00:45:07;;;;;;;66.53;38.80;;;;;;;7.21;100.00;98905.81;4092751;86;21024;-84
2022/10/22 00:51:08;;;;;;;61.85;35.88;;;;;;;7.19;100.00;98909.45;4088077;86;21059;-84
2022/10/22 00:57:11;;;;;;;64.70;36.15;;;;;;;7.13;100.00;98901.34;4080465;86;21090;-82
2022/10/22 01:03:13;;;;;;;60.28;34.53;;;;;;;7.06;100.00;98912.64;4093312;86;21134;-83
2022/10/22 01:09:28;;;;;;;63.25;34.33;;;;;;;7.00;100.00;98910.75;4082640;86;21044;-83
2022/10/22 01:15:38;;;;;;;55.38;33.33;;;;;;;7.02;100.00;98904.39;4066732;86;21191;-84
2022/10/22 01:21:45;;;;;;;49.35;31.02;;;;;;;7.05;100.00;98888.70;4174882;83;21062;-84
2022/10/22 01:27:58;;;;;;;;;;;;;;;7.05;100.00;98886.55;4097126;86;21090;-85
2022/10/22 01:34:01;;;;;;;50.67;31.33;;;;;;;7.00;100.00;98888.20;4132241;84;20676;-84
2022/10/22 01:40:07;;;;;;;57.08;32.67;;;;;;;7.04;100.00;98890.42;4163965;83;22002;-84
2022/10/22 01:46:10;;;;;;;55.45;33.78;;;;;;;6.97;100.00;98899.80;4083045;85;21087;-84
2022/10/22 01:52:30;;;;;;;55.65;31.90;;;;;;;6.85;100.00;98887.64;4125962;85;21051;-84
2022/10/22 01:58:56;;;;;;;50.33;29.32;;;;;;;6.71;100.00;98879.94;4086727;85;20991;-84
2022/10/22 02:05:08;;;;;;;58.87;33.63;;;;;;;6.63;100.00;98876.02;4066122;85;21964;-83
2022/10/22 02:11:12;;;;;;;53.58;32.03;;;;;;;6.51;100.00;98878.27;4121579;84;21067;-85
2022/10/22 02:17:19;;;;;;;56.10;30.82;;;;;;;6.38;100.00;98872.69;4128987;85;20975;-84
2022/10/22 02:23:21;;;;;;;51.48;32.40;;;;;;;6.28;100.00;98865.84;4082435;85;20972;-84
2022/10/22 02:29:42;;;;;;;53.45;31.57;;;;;;;6.20;100.00;98868.15;4126088;85;21547;-84
2022/10/22 02:35:45;;;;;;;54.75;33.02;;;;;;;6.06;100.00;98879.23;4130820;85;21003;-83
2022/10/22 02:41:47;;;;;;;53.20;31.48;;;;;;;6.07;100.00;98882.16;4169059;82;21090;-84
2022/10/22 02:47:48;;;;;;;51.70;29.85;;;;;;;5.97;100.00;98895.68;4182207;83;21571;-83
2022/10/22 02:53:50;;;;;;;51.73;29.35;;;;;;;5.89;100.00;98893.10;4132263;85;21498;-85
2022/10/22 02:59:52;;;;;;;50.23;28.80;;;;;;;5.75;100.00;98886.69;4075503;85;21208;-83
2022/10/22 03:05:53;;;;;;;41.23;25.23;;;;;;;5.58;100.00;98876.67;4079315;86;21057;-83
2022/10/22 03:11:55;;;;;;;41.35;25.27;;;;;;;5.55;100.00;98878.16;4081381;86;21493;-83
2022/10/22 03:17:56;;;;;;;39.98;24.32;;;;;;;5.47;100.00;98889.15;4077146;86;21688;-83
2022/10/22 03:24:00;;;;;;;45.67;27.52;;;;;;;5.47;100.00;98891.86;4083665;86;21912;-84
2022/10/22 03:30:03;;;;;;;53.15;30.02;;;;;;;5.37;100.00;98886.93;4052822;86;21059;-83
2022/10/22 03:36:06;;;;;;;37.25;23.55;;;;;;;5.24;100.00;98890.23;4061440;86;21102;-85
2022/10/22 03:42:08;;;;;;;43.33;24.25;;;;;;;5.33;100.00;98892.80;4170107;83;20979;-84
2022/10/22 03:48:09;;;;;;;48.08;28.30;;;;;;;5.42;100.00;98885.34;4167506;84;21606;-83
2022/10/22 03:54:10;;;;;;;44.85;27.27;;;;;;;5.35;100.00;98875.61;4165298;83;21519;-83
2022/10/22 04:00:12;;;;;;;49.48;28.52;;;;;;;5.17;100.00;98872.95;4159384;84;21015;-83
2022/10/22 04:06:14;;;;;;;52.48;29.30;;;;;;;5.01;100.00;98856.59;4163610;84;21055;-84
2022/10/22 04:12:15;;;;;;;49.65;27.80;;;;;;;4.87;100.00;98868.33;4152011;83;21505;-83
2022/10/22 04:18:21;;;;;;;42.58;26.80;;;;;;;4.84;100.00;98844.05;4062047;86;21971;-83
2022/10/22 04:24:23;;;;;;;49.67;28.65;;;;;;;4.75;100.00;98856.14;4021534;87;21935;-85
2022/10/22 04:30:24;;;;;;;46.10;29.05;;;;;;;4.77;100.00;98857.41;4033573;86;21032;-83
2022/10/22 04:36:27;;;;;;;46.83;27.05;;;;;;;4.64;100.00;98850.95;4170297;84;21002;-83
2022/10/22 04:42:28;;;;;;;61.05;32.85;;;;;;;4.76;100.00;98869.36;4158384;83;21077;-83
2022/10/22 04:48:30;;;;;;;59.42;33.13;;;;;;;4.72;100.00;98844.06;4053719;86;21088;-83
2022/10/22 04:54:31;;;;;;;53.08;31.37;;;;;;;4.70;100.00;98856.36;4042687;86;22258;-83
2022/10/22 05:00:33;;;;;;;51.13;30.27;;;;;;;4.68;100.00;98872.97;4052603;86;21076;-83
2022/10/22 05:06:36;;;;;;;51.02;30.40;;;;;;;4.75;100.00;98877.84;4061342;86;21040;-83
2022/10/22 05:12:37;;;;;;;55.67;30.75;;;;;;;4.70;100.00;98880.77;4084007;86;21039;-82
2022/10/22 05:18:41;;;;;;;55.08;31.25;;;;;;;4.70;100.00;98886.99;4077918;86;21018;-84
2022/10/22 05:24:43;;;;;;;52.03;29.95;;;;;;;4.65;100.00;98875.00;4047100;86;21592;-84
2022/10/22 05:30:55;;;;;;;58.52;31.95;;;;;;;4.67;100.00;98866.53;4161985;84;21498;-84
2022/10/22 05:36:57;;;;;;;44.90;25.60;;;;;;;4.59;100.00;98839.77;4164021;83;21022;-83
2022/10/22 05:42:59;;;;;;;49.00;28.55;;;;;;;4.49;100.00;98852.44;4178636;84;21942;-82
2022/10/22 05:49:04;;;;;;;50.12;29.55;;;;;;;4.44;100.00;98855.36;4179826;83;21648;-83
2022/10/22 05:55:06;;;;;;;55.73;31.70;;;;;;;4.63;100.00;98887.33;4161694;84;20971;-84
2022/10/22 06:01:13;;;;;;;49.15;27.80;;;;;;;4.73;100.00;98878.17;4168217;84;21034;-83
2022/10/22 06:07:15;;;;;;;53.30;31.27;;;;;;;4.65;100.00;98857.97;4157976;84;21020;-83
2022/10/22 06:13:16;;;;;;;51.77;31.87;;;;;;;4.50;100.00;98854.00;4119072;83;77548;-83
2022/10/22 06:19:20;;;;;;;51.73;30.27;;;;;;;4.48;100.00;98886.63;4134236;84;21111;-83
2022/10/22 06:25:22;;;;;;;59.45;37.40;;;;;;;4.61;100.00;98893.09;4126416;84;21060;-83
2022/10/22 06:31:25;;;;;;;56.90;35.88;;;;;;;4.82;100.00;98889.69;4132544;84;21039;-84
2022/10/22 06:37:26;;;;;;;65.37;38.15;;;;;;;4.97;100.00;98868.44;4131861;84;21052;-83
2022/10/22 06:43:27;;;;;;;58.45;36.55;;;;;;;5.13;100.00;98889.67;4130267;84;21024;-83
2022/10/22 06:49:29;;;;;;;63.70;36.83;;;;;;;5.37;100.00;98905.34;4134184;84;21021;-83
2022/10/22 06:55:30;;;;;;;62.40;37.28;;;;;;;5.68;100.00;98919.65;4131146;83;21077;-83
2022/10/22 07:01:33;;;;;;;57.70;34.13;;;;;;;6.05;100.00;98927.35;4133805;84;21021;-82
2022/10/22 07:07:35;;;;;;;59.60;34.83;;;;;;;6.32;100.00;98945.58;4127970;84;20989;-83
2022/10/22 07:13:38;;;;;;;55.73;34.38;;;;;;;6.64;100.00;98944.26;4156826;83;21007;-83
2022/10/22 07:19:40;;;;;;;61.92;36.05;;;;;;;6.90;100.00;98951.32;4144513;83;21811;-83
2022/10/22 07:25:42;;;;;;;56.70;35.15;;;;;;;7.27;100.00;98929.45;4146216;84;21043;-82
2022/10/22 07:31:44;;;;;;;52.60;31.33;;;;;;;7.79;100.00;98915.65;4152513;84;21031;-82
2022/10/22 07:37:45;;;;;;;52.80;32.48;;;;;;;8.34;100.00;98927.25;4151077;82;21642;-83
2022/10/22 07:43:47;;;;;;;57.15;33.00;;;;;;;8.65;100.00;98943.41;4076140;85;21036;-83
2022/10/22 07:49:48;;;;;;;54.08;34.35;;;;;;;8.78;100.00;98930.61;4152701;82;21012;-83
2022/10/22 07:55:51;;;;;;;55.20;32.03;;;;;;;8.92;100.00;98943.69;4102795;85;21020;-84
2022/10/22 08:01:52;;;;;;;53.92;31.90;;;;;;;9.08;100.00;98934.80;4145515;82;21496;-83
2022/10/22 08:07:53;;;;;;;55.90;30.48;;;;;;;9.22;100.00;98907.70;4155653;84;21079;-83
2022/10/22 08:13:55;;;;;;;47.62;29.50;;;;;;;9.43;100.00;98907.42;4130947;83;21008;-83
2022/10/22 08:19:56;;;;;;;45.55;27.15;;;;;;;9.63;100.00;98916.88;4120821;84;21017;-83
2022/10/22 08:25:58;;;;;;;48.28;29.10;;;;;;;9.76;100.00;98916.83;4121925;84;21424;-83
2022/10/22 08:32:01;;;;;;;42.90;25.62;;;;;;;9.99;100.00;98911.47;4119079;84;20992;-84
2022/10/22 08:38:02;;;;;;;40.73;22.55;;;;;;;10.18;100.00;98951.00;4125083;84;20960;-84
2022/10/22 08:44:22;;;;;;;34.35;20.48;;;;;;;10.35;100.00;98945.54;4125645;84;21036;-83
2022/10/22 08:50:30;;;;;;;38.60;21.60;;;;;;;10.49;100.00;98958.77;4119415;84;21055;-83
2022/10/22 08:56:35;;;;;;;38.15;20.37;;;;;;;10.63;100.00;98967.73;4115048;84;21571;-83
2022/10/22 09:03:11;;;;;;;34.10;20.45;;;;;;;10.71;100.00;98972.89;4123588;84;21023;-84
2022/10/22 09:09:18;;;;;;;31.52;19.15;;;;;;;10.78;100.00;98969.44;4122972;84;21085;-84
2022/10/22 09:15:19;;;;;;;37.73;20.05;;;;;;;10.81;100.00;98957.16;4144233;84;21141;-85
2022/10/22 09:22:05;;;;;;;30.82;18.10;;;;;;;10.85;100.00;98924.34;4137201;84;21923;-84
2022/10/22 09:28:09;;;;;;;30.62;18.62;;;;;;;10.98;100.00;98930.51;4145351;84;20969;-84
2022/10/22 09:34:20;;;;;;;31.15;20.95;;;;;;;11.12;100.00;98951.74;4144298;84;21005;-83
2022/10/22 09:40:23;;;;;;;27.32;18.57;;;;;;;11.24;100.00;98947.36;4137594;84;21951;-83
2022/10/22 09:46:29;;;;;;;31.45;19.60;;;;;;;11.37;99.30;98945.87;4138324;84;21027;-85
2022/10/22 09:52:33;;;;;;;26.13;16.83;;;;;;;11.41;99.07;98937.11;4138652;84;21031;-83
2022/10/22 09:58:44;;;;;;;34.30;21.30;;;;;;;11.43;98.46;98944.37;4149287;84;21074;-85
2022/10/22 10:04:50;;;;;;;28.42;18.52;;;;;;;11.43;97.74;98947.11;4158272;84;21022;-85
2022/10/22 10:11:24;;;;;;;30.92;19.12;;;;;;;11.36;97.64;98951.16;4144640;83;21069;-85
2022/10/22 10:17:59;;;;;;;29.70;18.23;;;;;;;11.32;97.04;98951.73;4138398;83;21078;-84
2022/10/22 10:24:34;;;;;;;31.00;17.37;;;;;;;11.22;96.87;98943.41;4067929;85;21602;-84
2022/10/22 10:30:44;;;;;;;29.77;19.52;;;;;;;11.22;96.95;98965.33;4111430;84;21097;-85
2022/10/22 10:37:17;;;;;;;30.30;18.67;;;;;;;11.29;96.93;98961.28;4115569;84;21558;-84
2022/10/22 10:44:07;;;;;;;31.65;18.15;;;;;;;11.34;97.10;98959.56;4109347;84;21560;-84
2022/10/22 10:50:30;;;;;;;32.08;19.30;;;;;;;11.38;97.27;98952.14;4118716;84;21493;-85
2022/10/22 10:56:40;;;;;;;34.45;20.92;;;;;;;11.37;96.84;98960.94;4117121;84;21505;-84
2022/10/22 11:03:22;;;;;;;36.08;22.77;;;;;;;11.44;97.06;98960.20;4142954;84;21512;-85
2022/10/22 11:09:40;;;;;;;35.95;22.80;;;;;;;11.47;97.29;98954.76;4076519;86;21100;-85
2022/10/22 11:15:47;;;;;;;39.92;24.92;;;;;;;11.42;97.66;98954.31;4139936;84;21044;-85
2022/10/22 11:22:17;;;;;;;45.88;27.87;;;;;;;11.31;98.15;98965.20;4155338;84;21088;-86
2022/10/22 11:28:38;;;;;;;46.95;29.18;;;;;;;11.32;98.52;98955.84;4140637;84;21039;-85
2022/10/22 11:34:46;;;;;;;49.73;30.02;;;;;;;11.32;98.48;98949.56;4151025;84;21122;-86
2022/10/22 11:41:08;;;;;;;60.30;34.98;;;;;;;11.09;98.66;98944.28;4062634;85;21019;-85
2022/10/22 11:47:25;;;;;;;56.42;33.20;;;;;;;11.06;99.52;98940.94;4146382;84;21020;-85
2022/10/22 11:53:38;;;;;;;44.70;28.60;;;;;;;11.08;100.00;98932.56;4075522;86;21032;-85
2022/10/22 11:59:46;;;;;;;53.02;36.35;;;;;;;10.94;99.42;98913.84;4116037;84;21359;-85
2022/10/22 12:06:18;;;;;;;53.28;37.38;;;;;;;10.87;100.00;98902.24;4113429;84;20997;-85
2022/10/22 12:12:20;;;;;;;47.43;33.40;;;;;;;10.87;100.00;98904.19;4114375;84;21016;-85
2022/10/22 12:18:48;;;;;;;48.05;33.48;;;;;;;10.89;100.00;98894.45;4114665;84;21017;-85
2022/10/22 12:24:54;;;;;;;49.08;35.03;;;;;;;10.92;100.00;98899.73;4116305;84;21068;-86
2022/10/22 12:30:58;;;;;;;49.85;32.42;;;;;;;10.88;100.00;98898.33;4156340;84;20998;-85
2022/10/22 12:37:03;;;;;;;51.75;33.13;;;;;;;10.91;100.00;98900.91;4135454;84;21693;-85
2022/10/22 12:43:19;;;;;;;51.60;33.58;;;;;;;10.95;100.00;98906.62;4145108;84;20986;-85
2022/10/22 12:49:28;;;;;;;52.85;32.93;;;;;;;10.98;100.00;98902.33;4143217;84;20996;-85
2022/10/22 12:55:32;;;;;;;48.50;32.45;;;;;;;11.06;100.00;98892.42;4148547;83;21998;-85
2022/10/22 13:01:42;;;;;;;55.52;34.48;;;;;;;11.09;100.00;98906.73;4139866;84;21086;-85
2022/10/22 13:07:51;;;;;;;45.63;31.17;;;;;;;11.16;100.00;98903.83;4149660;84;21088;-84
2022/10/22 13:14:02;;;;;;;50.50;32.33;;;;;;;11.18;100.00;98900.14;4076097;85;21549;-84
2022/10/22 13:20:18;;;;;;;61.53;38.55;;;;;;;11.10;100.00;98908.29;4064779;85;21062;-85
2022/10/22 13:26:19;;;;;;;51.48;31.52;;;;;;;11.09;100.00;98899.08;4060568;86;21072;-85
2022/10/22 13:32:33;;;;;;;50.55;32.42;;;;;;;11.07;100.00;98899.47;4074210;84;22397;-86
2022/10/22 13:38:34;;;;;;;54.90;34.78;;;;;;;11.06;100.00;98905.33;4065513;86;21065;-85
2022/10/22 13:44:37;;;;;;;49.55;34.95;;;;;;;11.06;100.00;98895.73;4075449;86;22206;-85
2022/10/22 13:50:38;;;;;;;45.58;30.95;;;;;;;10.97;100.00;98891.17;4075916;85;21025;-85
2022/10/22 13:56:40;;;;;;;48.78;31.20;;;;;;;10.85;100.00;98882.66;4067177;85;21085;-84
2022/10/22 14:02:44;;;;;;;52.45;33.67;;;;;;;10.87;100.00;98865.28;4154811;84;21022;-84
2022/10/22 14:08:59;;;;;;;64.05;40.38;;;;;;;10.87;100.00;98848.05;4150508;82;21058;-84
2022/10/22 14:15:00;;;;;;;70.70;46.33;;;;;;;10.88;100.00;98866.07;4191707;82;20983;-84
2022/10/22 14:21:06;;;;;;;57.60;37.75;;;;;;;10.87;100.00;98866.64;4200787;83;21015;-85
2022/10/22 14:27:13;;;;;;;62.95;39.35;;;;;;;10.90;100.00;98879.58;4144588;83;21060;-84
2022/10/22 14:40:25;;;;;;;67.37;38.60;;;;;;;10.96;100.00;98875.92;4194829;83;20296;-85
2022/10/22 14:46:29;;;;;;;64.32;40.48;;;;;;;10.94;100.00;98879.03;4196306;83;21051;-85
2022/10/22 14:52:30;;;;;;;69.72;40.67;;;;;;;10.91;100.00;98883.91;4209687;82;20967;-86
2022/10/22 14:58:31;;;;;;;61.45;39.30;;;;;;;10.91;100.00;98889.39;4208460;83;20987;-86
2022/10/22 15:11:43;;;;;;;62.25;38.33;;;;;;;10.85;100.00;98893.61;4187801;83;20987;-86
2022/10/22 15:17:46;;;;;;;70.45;43.45;;;;;;;10.81;100.00;98903.77;4121835;84;20993;-85
2022/10/22 15:23:48;;;;;;;72.50;45.50;;;;;;;10.82;100.00;98900.45;4023131;86;21417;-85
2022/10/22 15:29:55;;;;;;;71.92;43.92;;;;;;;10.80;100.00;98898.67;4103948;84;21064;-86
2022/10/22 15:36:13;;;;;;;69.03;45.90;;;;;;;10.78;100.00;98894.14;4113727;84;20992;-86
2022/10/22 15:42:17;;;;;;;75.08;47.27;;;;;;;10.73;100.00;98893.91;4114581;84;21056;-85
2022/10/22 15:48:18;;;;;;;71.95;48.00;;;;;;;10.74;100.00;98890.59;4118835;84;21067;-85
2022/10/22 15:54:26;;;;;;;85.25;55.78;;;;;;;10.75;100.00;98905.85;4112648;84;21086;-84
2022/10/22 16:00:29;;;;;;;86.63;53.00;;;;;;;10.79;100.00;98912.16;4114650;84;21071;-85
2022/10/22 16:06:38;;;;;;;70.32;46.35;;;;;;;10.81;100.00;98913.34;4120833;84;21079;-85
2022/10/22 16:12:39;;;;;;;67.00;46.20;;;;;;;10.82;100.00;98919.62;4136177;83;21063;-85
2022/10/22 16:18:44;;;;;;;84.80;52.90;;;;;;;10.74;100.00;98919.34;4198286;82;21096;-85
2022/10/22 16:24:46;;;;;;;82.15;54.25;;;;;;;10.77;100.00;98922.70;4133211;85;21025;-85
2022/10/22 16:30:51;;;;;;;98.58;57.67;;;;;;;10.77;100.00;98945.97;4056451;86;21083;-84
2022/10/22 16:36:55;;;;;;;89.13;58.92;;;;;;;10.78;100.00;98954.38;4047627;86;21033;-85
2022/10/22 16:42:57;;;;;;;86.85;56.37;;;;;;;10.80;100.00;98958.91;4055110;86;21053;-85
2022/10/22 16:48:59;;;;;;;88.82;58.05;;;;;;;10.80;100.00;98961.64;4184326;81;21011;-86
2022/10/22 16:55:02;;;;;;;97.55;62.55;;;;;;;10.80;100.00;98967.92;4170272;83;21026;-84
2022/10/22 17:01:25;;;;;;;99.17;63.90;;;;;;;10.82;100.00;98983.37;4168734;83;21121;-85
2022/10/22 17:07:27;;;;;;;96.97;65.00;;;;;;;10.82;100.00;98981.23;4116225;84;20944;-85
2022/10/22 17:13:29;;;;;;;103.75;67.82;;;;;;;10.83;100.00;98999.23;4145732;83;21042;-85
2022/10/22 17:19:30;;;;;;;110.80;72.90;;;;;;;10.84;100.00;98989.84;4183396;83;20974;-85
2022/10/22 17:25:42;;;;;;;127.05;77.50;;;;;;;10.83;100.00;98992.38;4069590;86;22094;-85
2022/10/22 17:31:49;;;;;;;111.90;73.80;;;;;;;10.80;100.00;98984.34;4120005;84;21029;-84
2022/10/22 17:37:50;;;;;;;115.05;73.90;;;;;;;10.80;100.00;98989.03;3994472;82;10000495;-85
2022/10/22 17:43:52;;;;;;;119.00;75.87;;;;;;;10.82;100.00;98982.60;4115559;84;21016;-84
2022/10/22 17:49:54;;;;;;;129.50;83.12;;;;;;;10.83;100.00;98984.16;4176992;83;20981;-84
2022/10/22 17:56:08;;;;;;;139.20;88.50;;;;;;;10.83;100.00;98984.96;4161629;83;21980;-84
2022/10/22 18:02:13;;;;;;;126.87;79.72;;;;;;;10.87;100.00;98998.09;4161182;83;21574;-84
2022/10/22 18:08:15;;;;;;;121.13;77.37;;;;;;;10.91;100.00;99003.04;4179462;82;21591;-84
2022/10/22 18:14:19;;;;;;;115.70;72.67;;;;;;;10.95;100.00;99004.42;4129386;83;21061;-82
2022/10/22 18:20:20;;;;;;;116.73;71.05;;;;;;;10.98;100.00;99014.05;4101044;85;21089;-85
2022/10/22 18:33:28;;;;;;;107.00;70.08;;;;;;;11.02;100.00;99024.45;4095212;85;21039;-84
2022/10/22 18:39:30;;;;;;;102.50;65.72;;;;;;;11.02;100.00;99018.20;4040164;86;21860;-85
2022/10/22 18:45:32;;;;;;;90.03;57.95;;;;;;;11.01;100.00;99022.08;4064861;86;20998;-84
2022/10/22 18:51:35;;;;;;;80.07;50.15;;;;;;;11.02;100.00;99029.16;4178385;83;21168;-85
2022/10/22 18:57:36;;;;;;;68.35;43.52;;;;;;;11.02;100.00;99031.89;4166564;84;21004;-84
2022/10/22 19:03:38;;;;;;;55.88;38.10;;;;;;;11.03;100.00;99044.42;4200658;83;20977;-85
2022/10/22 19:09:42;;;;;;;52.45;35.75;;;;;;;11.04;100.00;99045.41;4080953;83;9999766;-85
2022/10/22 19:15:48;;;;;;;47.85;32.98;;;;;;;11.03;100.00;99042.47;4182778;83;21074;-85
2022/10/22 19:21:52;;;;;;;41.05;29.57;;;;;;;11.03;100.00;99052.63;4177896;83;21978;-85
2022/10/22 19:27:53;;;;;;;41.45;28.42;;;;;;;11.03;100.00;99063.59;4150051;83;21092;-85
2022/10/22 19:34:00;;;;;;;38.08;25.12;;;;;;;11.02;100.00;99061.42;4185051;83;21844;-85
2022/10/22 19:40:04;;;;;;;44.15;28.65;;;;;;;11.03;100.00;99063.59;4174880;83;20996;-85
2022/10/22 19:46:07;;;;;;;45.25;27.62;;;;;;;11.01;100.00;99071.39;4176609;83;21072;-84
2022/10/22 19:52:09;;;;;;;40.60;25.55;;;;;;;11.02;100.00;99089.42;4170026;83;21075;-84
2022/10/22 19:58:14;;;;;;;36.58;25.17;;;;;;;11.02;100.00;99098.41;4120120;84;21369;-85
2022/10/22 20:04:18;;;;;;;37.33;25.88;;;;;;;11.02;100.00;99101.14;4083843;83;21447;-84
2022/10/22 20:10:19;;;;;;;38.10;26.80;;;;;;;11.04;100.00;99108.98;4008222;84;10000360;-85
2022/10/22 20:16:42;;;;;;;;;;;;;;;;;;;;;
2022/10/22 20:22:31;;;;;;;38.28;26.35;;;;;;;11.04;100.00;99125.42;4187482;83;21556;-84
2022/10/22 20:28:32;;;;;;;36.68;24.75;;;;;;;11.04;100.00;99130.33;4198868;83;21426;-84
2022/10/22 20:34:33;;;;;;;37.25;23.55;;;;;;;11.05;100.00;99134.66;4199702;83;21956;-85
2022/10/22 20:40:35;;;;;;;35.33;24.55;;;;;;;11.04;100.00;99139.92;4201234;83;21922;-85
2022/10/22 20:46:39;;;;;;;32.30;22.93;;;;;;;11.04;100.00;99146.77;4201289;83;21003;-85
2022/10/22 20:52:41;;;;;;;37.30;24.27;;;;;;;11.04;100.00;99139.12;4205286;83;21527;-85
2022/10/22 20:58:47;;;;;;;35.52;25.17;;;;;;;11.04;100.00;99145.97;4208767;83;21031;-85
2022/10/22 21:04:49;;;;;;;34.92;24.02;;;;;;;11.04;100.00;99152.81;4199803;83;20998;-84
2022/10/22 21:10:50;;;;;;;41.92;24.18;;;;;;;11.00;100.00;99160.22;4209624;83;20997;-84
2022/10/22 21:16:51;;;;;;;34.35;23.80;;;;;;;10.94;100.00;99167.98;4203300;82;21875;-85
2022/10/22 21:22:54;;;;;;;39.30;24.05;;;;;;;10.91;100.00;99169.31;4196776;83;21501;-84
2022/10/22 21:28:55;;;;;;;38.50;23.60;;;;;;;10.89;100.00;99170.25;4202301;83;20970;-84
2022/10/22 21:35:58;;;;;;;35.85;23.65;;;;;;;10.88;100.00;99167.31;4193085;83;21024;-85
2022/10/22 21:42:00;;;;;;;35.92;23.50;;;;;;;10.88;100.00;99161.84;4201071;83;21062;-82
2022/10/22 21:48:05;;;;;;;33.53;22.42;;;;;;;10.87;100.00;99184.32;4194774;83;21060;-84
2022/10/22 21:54:06;;;;;;;32.83;21.90;;;;;;;10.87;100.00;99166.52;4202095;83;21027;-85
2022/10/22 22:00:10;;;;;;;37.20;23.62;;;;;;;10.86;100.00;99171.00;4195454;83;21015;-85
2022/10/22 22:06:13;;;;;;;34.33;23.10;;;;;;;10.88;100.00;99173.56;4197560;83;21032;-85
2022/10/22 22:12:15;;;;;;;32.48;21.73;;;;;;;10.95;100.00;99181.08;4205145;83;21059;-84
2022/10/22 22:18:18;;;;;;;36.77;21.93;;;;;;;10.98;100.00;99178.39;4193771;83;21699;-85
2022/10/22 22:24:19;;;;;;;32.23;20.90;;;;;;;11.03;100.00;99188.23;4197036;82;22267;-84
2022/10/22 22:30:21;;;;;;;29.45;20.17;;;;;;;11.08;100.00;99190.08;4200206;83;21060;-84
2022/10/22 22:36:25;;;;;;;28.92;21.10;;;;;;;11.13;100.00;99199.31;4199337;83;21521;-83
2022/10/22 22:42:27;;;;;;;32.23;20.00;;;;;;;11.17;100.00;99208.15;4200846;82;21107;-85
2022/10/22 22:48:28;;;;;;;29.50;19.80;;;;;;;11.18;100.00;99211.92;4201189;82;21010;-84
2022/10/22 22:54:29;;;;;;;30.32;20.02;;;;;;;11.17;100.00;99199.36;4192304;83;21003;-84
2022/10/22 23:00:31;;;;;;;31.07;21.10;;;;;;;11.13;100.00;99199.31;4190063;83;21068;-85
2022/10/22 23:06:36;;;;;;;31.87;20.48;;;;;;;11.16;100.00;99203.84;4194477;83;21494;-84
2022/10/22 23:12:41;;;;;;;31.07;20.72;;;;;;;11.14;100.00;99211.06;4191630;83;20967;-85
2022/10/22 23:18:45;;;;;;;32.33;21.02;;;;;;;11.16;100.00;99208.75;4195273;83;21083;-84
2022/10/22 23:24:47;;;;;;;34.73;21.35;;;;;;;11.18;100.00;99217.39;4212455;83;21481;-84
2022/10/22 23:30:49;;;;;;;42.50;21.20;;;;;;;11.21;100.00;99220.76;4196625;83;21043;-85
2022/10/22 23:36:51;;;;;;;28.87;19.92;;;;;;;11.24;100.00;99229.59;4190448;83;21730;-84
2022/10/22 23:42:52;;;;;;;32.67;19.32;;;;;;;11.28;100.00;99244.13;4199704;83;21022;-84
2022/10/22 23:48:55;;;;;;;35.08;20.15;;;;;;;11.29;100.00;99244.31;4201213;82;20984;-84
2022/10/22 23:54:57;;;;;;;32.63;19.10;;;;;;;11.31;100.00;99252.20;4202581;83;21039;-84
